Time;durP1;ratioP1;P1;durP2;ratioP2;P2;SDS_P1;SDS_P2;PMS_P1;PMS_P2;Temp;Humidity;BMP_temperature;BMP_pressure;BME280_temperature;BME280_humidity;BME280_pressure;Samples;Min_cycle;Max_cycle;Signal;HPM_P1;HPM_P2
2023/10/15 00:00:37;;;;;;;21.37;19.33;;;;;;;;;;5092000;28;21012;-73
2023/10/15 00:03:07;;;;;;;21.20;19.50;;;;;;;;;;5092132;28;20449;-73
2023/10/15 00:05:35;;;;;;;20.43;18.93;;;;;;;;;;5091328;28;20984;-73
2023/10/15 00:08:02;;;;;;;25.85;20.10;;;;;;;;;;5092188;28;20522;-74
2023/10/15 00:10:31;;;;;;;22.50;20.60;;;;;;;;;;5091746;28;20977;-73
2023/10/15 00:12:59;;;;;;;21.77;19.67;;;;;;;;;;5091936;28;20459;-73
2023/10/15 00:15:28;;;;;;;21.37;19.30;;;;;;;;;;5091398;28;20449;-73
2023/10/15 00:17:58;;;;;;;22.10;20.20;;;;;;;;;;5091780;28;20492;-74
2023/10/15 00:20:31;;;;;;;21.70;19.77;;;;;;;;;;5092158;28;20532;-73
2023/10/15 00:22:58;;;;;;;22.30;20.20;;;;;;;;;;5091672;28;20751;-73
2023/10/15 00:25:26;;;;;;;21.70;19.53;;;;;;;;;;5091083;28;20449;-73
2023/10/15 00:27:54;;;;;;;21.57;19.47;;;;;;;;;;5091923;28;20465;-73
2023/10/15 00:30:22;;;;;;;21.13;19.60;;;;;;;;;;5090489;28;20419;-73
2023/10/15 00:32:52;;;;;;;21.23;19.60;;;;;;;;;;5092083;28;20459;-73
2023/10/15 00:35:20;;;;;;;21.20;19.30;;;;;;;;;;5090922;28;20524;-73
2023/10/15 00:37:54;;;;;;;21.27;19.67;;;;;;;;;;5091582;28;20571;-74
2023/10/15 00:40:21;;;;;;;21.30;19.60;;;;;;;;;;5091442;28;20454;-73
2023/10/15 00:42:49;;;;;;;22.13;20.00;;;;;;;;;;5091203;28;20445;-73
2023/10/15 00:45:18;;;;;;;21.20;19.50;;;;;;;;;;5090612;28;20419;-73
2023/10/15 00:47:45;;;;;;;21.52;19.55;;;;;;;;;;5091362;28;20475;-74
2023/10/15 00:50:14;;;;;;;22.17;20.10;;;;;;;;;;5090957;28;20210;-73
2023/10/15 00:52:43;;;;;;;22.43;20.43;;;;;;;;;;5091120;28;20911;-72
2023/10/15 00:55:17;;;;;;;21.90;19.90;;;;;;;;;;5090451;28;20428;-73
2023/10/15 00:57:46;;;;;;;22.40;20.70;;;;;;;;;;5091303;28;20953;-74
2023/10/15 01:02:56;;;;;;;21.70;20.07;;;;;;;;;;5090613;28;20437;-74
2023/10/15 01:05:24;;;;;;;22.27;20.07;;;;;;;;;;5090890;28;20444;-74
2023/10/15 01:07:51;;;;;;;20.93;19.43;;;;;;;;;;5091040;28;20465;-73
2023/10/15 01:10:31;;;;;;;21.83;20.07;;;;;;;;;;5090862;28;20506;-73
2023/10/15 01:13:05;;;;;;;24.57;22.20;;;;;;;;;;5090939;28;20896;-73
2023/10/15 01:15:35;;;;;;;19.63;18.30;;;;;;;;;;5090054;28;20416;-73
2023/10/15 01:18:07;;;;;;;20.00;18.70;;;;;;;;;;5091084;28;20490;-73
2023/10/15 01:20:39;;;;;;;20.90;19.30;;;;;;;;;;5090968;28;20528;-73
2023/10/15 01:23:06;;;;;;;20.30;18.70;;;;;;;;;;5093209;28;20528;-73
2023/10/15 01:25:35;;;;;;;20.57;18.87;;;;;;;;;;5093997;28;20851;-73
2023/10/15 01:28:03;;;;;;;20.20;18.73;;;;;;;;;;5094424;28;20436;-73
2023/10/15 01:30:35;;;;;;;21.90;18.70;;;;;;;;;;5093260;28;20492;-72
2023/10/15 01:33:06;;;;;;;20.27;18.40;;;;;;;;;;5094611;28;20432;-74
2023/10/15 01:35:37;;;;;;;19.77;18.13;;;;;;;;;;5093898;28;20484;-73
2023/10/15 01:38:09;;;;;;;19.97;18.47;;;;;;;;;;5094338;28;20485;-73
2023/10/15 01:40:40;;;;;;;20.57;18.90;;;;;;;;;;5094216;28;20460;-73
2023/10/15 01:43:12;;;;;;;20.30;18.77;;;;;;;;;;5094282;28;20420;-75
2023/10/15 01:45:40;;;;;;;20.30;18.77;;;;;;;;;;5093986;28;20538;-73
2023/10/15 01:48:17;;;;;;;20.20;18.60;;;;;;;;;;5094309;28;20493;-73
2023/10/15 01:50:49;;;;;;;21.07;19.33;;;;;;;;;;5094098;28;20403;-74
2023/10/15 01:53:17;;;;;;;19.90;18.40;;;;;;;;;;5094396;28;20434;-73
2023/10/15 01:55:54;;;;;;;19.90;18.43;;;;;;;;;;5093463;28;20458;-74
2023/10/15 01:58:24;;;;;;;18.87;17.50;;;;;;;;;;5093877;28;20860;-73
2023/10/15 02:00:52;;;;;;;20.77;18.93;;;;;;;;;;5094441;28;20484;-72
2023/10/15 02:03:19;;;;;;;18.83;17.63;;;;;;;;;;5093732;28;20520;-74
2023/10/15 02:05:46;;;;;;;18.90;17.47;;;;;;;;;;5093540;28;20426;-74
2023/10/15 02:08:16;;;;;;;21.70;19.63;;;;;;;;;;5093773;28;20483;-73
2023/10/15 02:10:46;;;;;;;18.67;17.17;;;;;;;;;;5093709;28;20457;-73
2023/10/15 02:13:16;;;;;;;18.77;17.57;;;;;;;;;;5093671;28;20423;-73
2023/10/15 02:15:43;;;;;;;19.10;17.80;;;;;;;;;;5093144;28;20523;-73
2023/10/15 02:18:13;;;;;;;20.93;19.00;;;;;;;;;;5093321;28;21002;-73
2023/10/15 02:20:44;;;;;;;21.53;19.97;;;;;;;;;;5093428;28;20420;-73
2023/10/15 02:23:12;;;;;;;20.80;18.83;;;;;;;;;;5093493;28;20424;-75
2023/10/15 02:25:45;;;;;;;20.27;18.77;;;;;;;;;;5092728;28;20444;-75
2023/10/15 02:28:12;;;;;;;21.40;19.70;;;;;;;;;;5093500;28;20469;-73
2023/10/15 02:30:46;;;;;;;19.93;18.63;;;;;;;;;;5092656;28;20445;-73
2023/10/15 02:33:16;;;;;;;20.40;19.20;;;;;;;;;;5092783;28;20453;-73
2023/10/15 02:35:45;;;;;;;23.63;21.60;;;;;;;;;;5091932;28;20459;-73
2023/10/15 02:38:13;;;;;;;27.13;25.60;;;;;;;;;;5093017;28;20318;-73
2023/10/15 02:43:23;;;;;;;38.47;35.90;;;;;;;;;;5092760;28;20436;-73
2023/10/15 02:45:51;;;;;;;40.47;38.27;;;;;;;;;;5092382;28;20921;-72
2023/10/15 02:48:21;;;;;;;38.93;37.03;;;;;;;;;;5093134;28;20468;-73
2023/10/15 02:50:59;;;;;;;35.97;33.77;;;;;;;;;;5093022;28;20419;-73
2023/10/15 02:53:27;;;;;;;35.33;33.30;;;;;;;;;;5092966;28;20423;-73
2023/10/15 02:55:57;;;;;;;36.10;34.20;;;;;;;;;;5092622;28;20203;-73
2023/10/15 02:58:28;;;;;;;36.37;34.47;;;;;;;;;;5093041;28;20492;-73
2023/10/15 03:01:00;;;;;;;38.23;35.70;;;;;;;;;;5092845;28;20886;-73
2023/10/15 03:03:33;;;;;;;36.33;34.15;;;;;;;;;;5093032;28;20519;-74
2023/10/15 03:06:01;;;;;;;39.83;37.73;;;;;;;;;;5092267;28;20627;-73
2023/10/15 03:08:33;;;;;;;39.37;37.20;;;;;;;;;;5092923;28;20427;-73
2023/10/15 03:11:07;;;;;;;40.43;38.33;;;;;;;;;;5092698;28;20796;-73
2023/10/15 03:13:44;;;;;;;39.37;37.10;;;;;;;;;;5092970;28;20404;-73
2023/10/15 03:16:13;;;;;;;40.30;38.00;;;;;;;;;;5091751;28;20806;-73
2023/10/15 03:18:40;;;;;;;35.87;33.97;;;;;;;;;;5092677;28;20226;-73
2023/10/15 03:21:14;;;;;;;35.47;33.47;;;;;;;;;;5092809;28;20419;-73
2023/10/15 03:23:42;;;;;;;34.70;32.60;;;;;;;;;;5092540;28;20215;-73
2023/10/15 03:26:17;;;;;;;35.60;33.70;;;;;;;;;;5091712;28;20450;-73
2023/10/15 03:28:45;;;;;;;39.30;37.00;;;;;;;;;;5092198;28;20199;-74
2023/10/15 03:31:15;;;;;;;35.20;33.40;;;;;;;;;;5092122;28;20484;-73
2023/10/15 03:33:58;;;;;;;37.03;35.13;;;;;;;;;;5091906;28;20577;-73
2023/10/15 03:36:26;;;;;;;35.97;33.87;;;;;;;;;;5091608;28;20820;-73
2023/10/15 03:38:54;;;;;;;37.85;35.70;;;;;;;;;;5091682;28;20485;-73
2023/10/15 03:41:27;;;;;;;36.33;34.43;;;;;;;;;;5091808;28;20214;-73
2023/10/15 03:43:57;;;;;;;34.80;33.00;;;;;;;;;;5091723;28;20468;-73
2023/10/15 03:46:25;;;;;;;34.97;33.27;;;;;;;;;;5090858;28;20490;-73
2023/10/15 03:48:53;;;;;;;37.63;35.72;;;;;;;;;;5092135;28;20509;-73
2023/10/15 03:51:21;;;;;;;35.75;33.55;;;;;;;;;;5091999;28;20564;-73
2023/10/15 03:53:50;;;;;;;36.95;35.05;;;;;;;;;;5091147;28;20206;-73
2023/10/15 03:56:18;;;;;;;38.13;35.83;;;;;;;;;;5091730;28;20198;-74
2023/10/15 03:58:45;;;;;;;38.80;36.63;;;;;;;;;;5092037;28;20525;-73
2023/10/15 04:01:15;;;;;;;37.15;34.70;;;;;;;;;;5091996;28;20423;-73
2023/10/15 04:03:47;;;;;;;37.45;35.42;;;;;;;;;;5091651;28;20242;-73
2023/10/15 04:06:14;;;;;;;36.88;34.78;;;;;;;;;;5091601;28;20548;-73
2023/10/15 04:08:59;;;;;;;34.70;32.80;;;;;;;;;;5090942;28;20607;-73
2023/10/15 04:11:30;;;;;;;35.08;33.08;;;;;;;;;;5091737;28;20961;-73
2023/10/15 04:14:01;;;;;;;36.40;34.13;;;;;;;;;;5090931;28;20327;-74
2023/10/15 04:16:29;;;;;;;36.17;34.25;;;;;;;;;;5091471;28;20227;-73
2023/10/15 04:19:00;;;;;;;36.50;34.43;;;;;;;;;;5090877;28;20566;-73
2023/10/15 04:21:27;;;;;;;36.80;34.80;;;;;;;;;;5091312;28;20980;-73
2023/10/15 04:23:56;;;;;;;36.77;34.77;;;;;;;;;;5091083;28;20203;-73
2023/10/15 04:26:28;;;;;;;39.30;36.90;;;;;;;;;;5091233;28;20473;-73
2023/10/15 04:28:56;;;;;;;37.85;35.28;;;;;;;;;;5091141;28;20243;-73
2023/10/15 04:31:23;;;;;;;33.80;31.90;;;;;;;;;;5091542;28;20210;-73
2023/10/15 04:33:52;;;;;;;35.30;33.20;;;;;;;;;;5090990;28;20434;-73
2023/10/15 04:36:20;;;;;;;35.90;33.85;;;;;;;;;;5091732;28;20502;-73
2023/10/15 04:38:47;;;;;;;38.47;36.07;;;;;;;;;;5090910;28;20296;-73
2023/10/15 04:41:21;;;;;;;36.10;34.00;;;;;;;;;;5091140;28;20463;-73
2023/10/15 04:43:48;;;;;;;37.77;35.33;;;;;;;;;;5090785;28;20287;-74
2023/10/15 04:46:17;;;;;;;37.17;34.63;;;;;;;;;;5091141;28;21187;-73
2023/10/15 04:48:45;;;;;;;36.88;34.80;;;;;;;;;;5090572;28;20758;-74
2023/10/15 04:51:13;;;;;;;37.47;34.73;;;;;;;;;;5091559;28;20263;-73
2023/10/15 04:53:44;;;;;;;37.80;35.23;;;;;;;;;;5091014;28;20444;-73
2023/10/15 04:56:12;;;;;;;39.03;36.75;;;;;;;;;;5090655;28;20899;-73
2023/10/15 04:58:39;;;;;;;39.50;37.30;;;;;;;;;;5094420;28;20388;-73
2023/10/15 05:01:09;;;;;;;36.47;34.33;;;;;;;;;;5094707;28;20517;-74
2023/10/15 05:03:36;;;;;;;38.67;36.13;;;;;;;;;;5095585;28;20860;-73
2023/10/15 05:06:03;;;;;;;38.73;36.43;;;;;;;;;;5094742;28;20506;-73
2023/10/15 05:08:32;;;;;;;39.80;37.50;;;;;;;;;;5095146;28;20443;-73
2023/10/15 05:11:00;;;;;;;38.75;36.25;;;;;;;;;;5094502;28;20472;-74
2023/10/15 05:13:27;;;;;;;39.20;36.90;;;;;;;;;;5095180;28;20210;-73
2023/10/15 05:15:56;;;;;;;41.87;39.47;;;;;;;;;;5094337;28;20427;-73
2023/10/15 05:18:23;;;;;;;40.15;37.80;;;;;;;;;;5094392;28;21089;-73
2023/10/15 05:20:51;;;;;;;39.60;37.33;;;;;;;;;;5094419;28;20671;-73
2023/10/15 05:23:18;;;;;;;40.83;38.17;;;;;;;;;;5094675;28;20416;-73
2023/10/15 05:25:46;;;;;;;40.17;37.77;;;;;;;;;;5094124;28;20444;-73
2023/10/15 05:28:15;;;;;;;40.43;37.20;;;;;;;;;;5094605;28;20552;-73
2023/10/15 05:30:42;;;;;;;40.67;38.07;;;;;;;;;;5094384;28;20556;-73
2023/10/15 05:33:09;;;;;;;40.43;37.93;;;;;;;;;;5094544;28;20448;-73
2023/10/15 05:35:37;;;;;;;41.80;39.33;;;;;;;;;;5093783;28;20844;-74
2023/10/15 05:38:07;;;;;;;43.83;40.67;;;;;;;;;;5094108;28;20480;-73
2023/10/15 05:40:35;;;;;;;39.93;37.57;;;;;;;;;;5094152;28;20468;-73
2023/10/15 05:43:02;;;;;;;43.00;40.60;;;;;;;;;;5094287;28;20419;-73
2023/10/15 05:45:30;;;;;;;41.87;38.97;;;;;;;;;;5093548;28;20210;-73
2023/10/15 05:47:57;;;;;;;40.10;37.80;;;;;;;;;;5093903;28;20488;-73
2023/10/15 05:50:24;;;;;;;40.53;37.80;;;;;;;;;;5093877;28;20419;-73
2023/10/15 05:52:51;;;;;;;44.40;41.10;;;;;;;;;;5093329;28;20468;-73
2023/10/15 05:55:20;;;;;;;42.93;40.37;;;;;;;;;;5093548;28;20426;-73
2023/10/15 05:57:47;;;;;;;39.60;37.20;;;;;;;;;;5093219;28;20506;-73
2023/10/15 06:00:26;;;;;;;42.15;39.55;;;;;;;;;;5093645;28;20449;-73
2023/10/15 06:02:55;;;;;;;42.90;39.87;;;;;;;;;;5093626;28;20206;-73
2023/10/15 06:05:23;;;;;;;42.30;39.40;;;;;;;;;;5093349;28;20502;-73
2023/10/15 06:07:50;;;;;;;41.60;39.00;;;;;;;;;;5093793;28;20440;-73
2023/10/15 06:10:17;;;;;;;41.40;38.80;;;;;;;;;;5093945;28;20423;-73
2023/10/15 06:12:45;;;;;;;41.75;39.15;;;;;;;;;;5093176;28;20505;-74
2023/10/15 06:15:15;;;;;;;41.63;39.10;;;;;;;;;;5093070;28;20663;-74
2023/10/15 06:17:42;;;;;;;40.67;38.10;;;;;;;;;;5093783;28;20564;-73
2023/10/15 06:20:14;;;;;;;42.70;39.97;;;;;;;;;;5093808;28;20445;-73
2023/10/15 06:22:41;;;;;;;47.03;43.70;;;;;;;;;;5093343;28;20469;-73
2023/10/15 06:25:11;;;;;;;43.23;40.00;;;;;;;;;;5093346;28;20452;-73
2023/10/15 06:27:39;;;;;;;40.88;38.38;;;;;;;;;;5093521;28;20439;-73
2023/10/15 06:30:09;;;;;;;42.57;39.80;;;;;;;;;;5093792;28;20206;-73
2023/10/15 06:32:36;;;;;;;40.38;37.72;;;;;;;;;;5092740;28;20988;-73
2023/10/15 06:35:05;;;;;;;42.43;39.53;;;;;;;;;;5092612;28;20694;-73
2023/10/15 06:37:34;;;;;;;39.27;37.07;;;;;;;;;;5093424;28;20461;-72
2023/10/15 06:40:01;;;;;;;39.70;37.08;;;;;;;;;;5093134;28;20577;-73
2023/10/15 06:42:30;;;;;;;39.10;36.80;;;;;;;;;;5093746;28;20195;-74
2023/10/15 06:44:57;;;;;;;41.65;38.75;;;;;;;;;;5094286;28;20544;-73
2023/10/15 06:47:25;;;;;;;42.80;40.00;;;;;;;;;;5093263;28;20229;-74
2023/10/15 06:49:53;;;;;;;37.47;35.10;;;;;;;;;;5093087;28;20927;-74
2023/10/15 06:52:20;;;;;;;36.63;34.33;;;;;;;;;;5093310;28;20427;-74
2023/10/15 06:54:48;;;;;;;38.90;36.30;;;;;;;;;;5091839;28;20440;-74
2023/10/15 06:57:17;;;;;;;34.20;32.20;;;;;;;;;;5093407;28;20448;-74
2023/10/15 06:59:44;;;;;;;35.47;32.97;;;;;;;;;;5093009;28;20226;-74
2023/10/15 07:02:11;;;;;;;34.90;32.90;;;;;;;;;;5093058;28;20441;-74
2023/10/15 07:04:38;;;;;;;33.03;31.23;;;;;;;;;;5091575;28;20435;-74
2023/10/15 07:07:05;;;;;;;31.10;29.20;;;;;;;;;;5092934;28;20476;-73
2023/10/15 07:09:33;;;;;;;33.00;31.00;;;;;;;;;;5092889;28;20214;-74
2023/10/15 07:12:01;;;;;;;31.80;29.90;;;;;;;;;;5092702;28;20829;-74
2023/10/15 07:14:29;;;;;;;29.97;28.03;;;;;;;;;;5091484;28;20828;-74
2023/10/15 07:16:56;;;;;;;30.80;28.50;;;;;;;;;;5092758;28;20445;-74
2023/10/15 07:19:25;;;;;;;31.57;29.03;;;;;;;;;;5092309;28;20463;-74
2023/10/15 07:21:52;;;;;;;30.60;28.63;;;;;;;;;;5092136;28;20427;-74
2023/10/15 07:24:19;;;;;;;28.20;26.50;;;;;;;;;;5091299;28;20507;-75
2023/10/15 07:26:47;;;;;;;29.48;27.60;;;;;;;;;;5092014;28;21023;-74
2023/10/15 07:29:16;;;;;;;28.37;26.57;;;;;;;;;;5092272;28;20207;-75
2023/10/15 07:31:43;;;;;;;26.90;25.40;;;;;;;;;;5092302;28;20468;-74
2023/10/15 07:34:10;;;;;;;25.47;24.07;;;;;;;;;;5091465;28;20945;-74
2023/10/15 07:36:38;;;;;;;23.67;22.33;;;;;;;;;;5091363;28;20456;-75
2023/10/15 07:39:06;;;;;;;23.30;22.00;;;;;;;;;;5091997;28;20484;-74
2023/10/15 07:41:33;;;;;;;22.57;21.33;;;;;;;;;;5091765;28;20439;-74
2023/10/15 07:44:01;;;;;;;24.55;23.05;;;;;;;;;;5091596;28;20801;-74
2023/10/15 07:46:30;;;;;;;23.13;21.77;;;;;;;;;;5091377;28;20228;-74
2023/10/15 07:48:57;;;;;;;24.33;22.77;;;;;;;;;;5092184;28;20783;-73
2023/10/15 07:51:25;;;;;;;23.83;22.53;;;;;;;;;;5092175;28;20202;-75
2023/10/15 07:53:52;;;;;;;24.90;23.30;;;;;;;;;;5091586;28;20424;-74
2023/10/15 07:56:21;;;;;;;26.03;24.40;;;;;;;;;;5091598;28;20442;-73
2023/10/15 07:58:48;;;;;;;23.73;21.90;;;;;;;;;;5092013;28;20459;-74
2023/10/15 08:01:16;;;;;;;24.00;22.27;;;;;;;;;;5091878;28;20970;-74
2023/10/15 08:03:45;;;;;;;23.57;21.97;;;;;;;;;;5091651;28;21015;-74
2023/10/15 08:06:12;;;;;;;23.17;21.57;;;;;;;;;;5091481;28;20435;-74
2023/10/15 08:08:39;;;;;;;22.43;20.83;;;;;;;;;;5091808;28;20785;-73
2023/10/15 08:11:06;;;;;;;22.90;21.60;;;;;;;;;;5092117;28;20498;-74
2023/10/15 08:13:33;;;;;;;22.30;21.00;;;;;;;;;;5091910;28;20427;-74
2023/10/15 08:16:00;;;;;;;22.80;21.40;;;;;;;;;;5089480;28;20968;-75
2023/10/15 08:18:27;;;;;;;24.27;22.67;;;;;;;;;;5091031;28;20452;-75
2023/10/15 08:20:55;;;;;;;23.13;21.83;;;;;;;;;;5091593;28;20445;-74
2023/10/15 08:23:22;;;;;;;22.50;21.00;;;;;;;;;;5091454;28;20432;-75
2023/10/15 08:25:50;;;;;;;20.53;19.33;;;;;;;;;;5090876;28;20779;-74
2023/10/15 08:28:18;;;;;;;22.77;21.37;;;;;;;;;;5091468;28;20436;-75
2023/10/15 08:30:45;;;;;;;20.90;19.53;;;;;;;;;;5090685;28;20958;-75
2023/10/15 08:33:12;;;;;;;21.93;20.33;;;;;;;;;;5091321;28;20477;-74
2023/10/15 08:35:40;;;;;;;20.83;19.47;;;;;;;;;;5091023;28;20440;-74
2023/10/15 08:38:08;;;;;;;20.20;19.00;;;;;;;;;;5091329;28;20439;-75
2023/10/15 08:40:39;;;;;;;20.33;18.90;;;;;;;;;;5090605;28;20488;-74
2023/10/15 08:43:09;;;;;;;18.10;17.20;;;;;;;;;;5091148;28;20443;-75
2023/10/15 08:45:37;;;;;;;19.37;18.27;;;;;;;;;;5090856;28;20415;-75
2023/10/15 08:48:05;;;;;;;19.30;18.30;;;;;;;;;;5091494;28;20447;-74
2023/10/15 08:50:36;;;;;;;19.47;18.17;;;;;;;;;;5090855;28;20444;-74
2023/10/15 08:53:04;;;;;;;19.43;18.03;;;;;;;;;;5091568;28;20433;-75
2023/10/15 08:55:33;;;;;;;17.40;16.60;;;;;;;;;;5090589;28;20453;-74
2023/10/15 08:58:00;;;;;;;18.63;17.33;;;;;;;;;;5091135;28;20467;-74
2023/10/15 09:00:28;;;;;;;18.13;17.13;;;;;;;;;;5091170;28;20491;-74
2023/10/15 09:02:56;;;;;;;19.50;18.30;;;;;;;;;;5091006;28;20813;-75
2023/10/15 09:05:23;;;;;;;20.07;18.77;;;;;;;;;;5090387;28;20495;-75
2023/10/15 09:07:51;;;;;;;19.53;18.00;;;;;;;;;;5091284;28;20436;-74
2023/10/15 09:10:18;;;;;;;18.10;17.10;;;;;;;;;;5090847;28;20441;-74
2023/10/15 09:12:47;;;;;;;20.40;19.10;;;;;;;;;;5090928;28;20433;-75
2023/10/15 09:15:16;;;;;;;19.27;17.97;;;;;;;;;;5090623;28;20907;-74
2023/10/15 09:17:49;;;;;;;19.47;18.13;;;;;;;;;;5091097;28;20569;-75
2023/10/15 09:20:26;;;;;;;18.37;17.47;;;;;;;;;;5091264;28;20466;-74
2023/10/15 09:22:53;;;;;;;18.73;17.73;;;;;;;;;;5090636;28;20512;-75
2023/10/15 09:25:20;;;;;;;17.67;16.70;;;;;;;;;;5090641;28;20548;-74
2023/10/15 09:27:48;;;;;;;18.80;17.40;;;;;;;;;;5090814;28;20909;-74
2023/10/15 09:30:19;;;;;;;18.90;17.70;;;;;;;;;;5091331;28;20415;-75
2023/10/15 09:32:47;;;;;;;17.30;16.50;;;;;;;;;;5090456;28;20439;-75
2023/10/15 09:35:14;;;;;;;17.70;16.60;;;;;;;;;;5090503;28;20511;-75
2023/10/15 09:37:42;;;;;;;17.53;16.53;;;;;;;;;;5090943;28;20444;-75
2023/10/15 09:40:18;;;;;;;17.93;17.00;;;;;;;;;;5090359;28;20451;-75
2023/10/15 09:42:46;;;;;;;18.27;16.87;;;;;;;;;;5090261;28;20435;-74
2023/10/15 09:45:18;;;;;;;17.77;16.77;;;;;;;;;;5094313;28;20452;-74
2023/10/15 09:47:48;;;;;;;17.60;16.60;;;;;;;;;;5094524;28;20465;-74
2023/10/15 09:50:16;;;;;;;16.83;16.03;;;;;;;;;;5094513;28;20880;-75
2023/10/15 09:52:44;;;;;;;17.87;16.80;;;;;;;;;;5093630;28;20857;-75
2023/10/15 09:55:12;;;;;;;18.13;17.23;;;;;;;;;;5093922;28;20437;-75
2023/10/15 09:57:40;;;;;;;18.10;17.00;;;;;;;;;;5094380;28;20499;-75
2023/10/15 10:00:13;;;;;;;18.40;17.40;;;;;;;;;;5094162;28;20451;-75
2023/10/15 10:02:48;;;;;;;18.23;17.10;;;;;;;;;;5093640;28;20502;-75
2023/10/15 10:05:41;;;;;;;18.63;17.53;;;;;;;;;;5093632;28;20448;-75
2023/10/15 10:08:12;;;;;;;18.10;16.90;;;;;;;;;;5093466;28;20768;-74
2023/10/15 10:10:45;;;;;;;17.90;17.00;;;;;;;;;;5094026;28;20423;-75
2023/10/15 10:13:27;;;;;;;18.50;17.47;;;;;;;;;;5093753;28;20488;-75
2023/10/15 10:15:57;;;;;;;18.67;17.67;;;;;;;;;;5080296;28;20438;-78
2023/10/15 10:18:28;;;;;;;19.03;17.73;;;;;;;;;;5094258;28;20467;-74
2023/10/15 10:20:56;;;;;;;18.33;17.17;;;;;;;;;;5093642;28;20459;-75
2023/10/15 10:23:23;;;;;;;21.87;20.37;;;;;;;;;;5093725;28;20498;-74
2023/10/15 10:25:51;;;;;;;18.53;17.43;;;;;;;;;;5093388;28;20429;-75
2023/10/15 10:28:19;;;;;;;17.73;16.83;;;;;;;;;;5093749;28;20441;-75
2023/10/15 10:30:53;;;;;;;19.13;18.13;;;;;;;;;;5093174;28;20412;-74
2023/10/15 10:33:35;;;;;;;18.37;17.37;;;;;;;;;;5093372;28;20439;-75
2023/10/15 10:36:11;;;;;;;18.83;17.80;;;;;;;;;;5091520;28;20431;-74
2023/10/15 10:38:39;;;;;;;19.20;18.10;;;;;;;;;;5093394;28;20427;-74
2023/10/15 10:41:07;;;;;;;20.70;18.90;;;;;;;;;;5092992;28;20495;-75
2023/10/15 10:43:34;;;;;;;17.73;16.73;;;;;;;;;;5093187;28;20460;-74
2023/10/15 10:46:02;;;;;;;19.03;17.93;;;;;;;;;;5091729;28;20471;-75
2023/10/15 10:48:33;;;;;;;18.77;17.67;;;;;;;;;;5092498;28;20929;-75
2023/10/15 10:51:21;;;;;;;18.70;17.60;;;;;;;;;;5092809;28;20445;-74
2023/10/15 10:54:03;;;;;;;20.57;19.37;;;;;;;;;;5092046;28;20806;-75
2023/10/15 10:56:45;;;;;;;20.00;18.87;;;;;;;;;;5090737;28;20546;-75
2023/10/15 10:59:13;;;;;;;19.90;18.70;;;;;;;;;;5092164;28;20423;-75
2023/10/15 11:01:40;;;;;;;19.03;17.93;;;;;;;;;;5092995;28;20448;-74
2023/10/15 11:04:07;;;;;;;18.97;17.87;;;;;;;;;;5092355;28;20451;-75
2023/10/15 11:06:37;;;;;;;19.00;17.60;;;;;;;;;;5092237;28;20508;-75
2023/10/15 11:09:09;;;;;;;20.20;18.73;;;;;;;;;;5092850;28;20488;-75
2023/10/15 11:11:36;;;;;;;19.10;18.00;;;;;;;;;;5092565;28;20540;-74
2023/10/15 11:14:03;;;;;;;18.50;17.40;;;;;;;;;;5092250;28;20496;-74
2023/10/15 11:16:33;;;;;;;19.20;18.10;;;;;;;;;;5092027;28;20481;-74
2023/10/15 11:19:00;;;;;;;19.73;18.53;;;;;;;;;;5092808;28;20441;-75
2023/10/15 11:21:27;;;;;;;18.77;17.67;;;;;;;;;;5092499;28;20463;-75
2023/10/15 11:23:57;;;;;;;20.00;18.90;;;;;;;;;;5091811;28;20473;-75
2023/10/15 11:26:24;;;;;;;20.00;18.70;;;;;;;;;;5092432;28;20463;-74
2023/10/15 11:28:51;;;;;;;19.73;18.63;;;;;;;;;;5092351;28;20936;-74
2023/10/15 11:31:20;;;;;;;19.27;17.97;;;;;;;;;;5092524;28;20438;-74
2023/10/15 11:33:47;;;;;;;19.80;18.60;;;;;;;;;;5091945;28;20469;-75
2023/10/15 11:36:17;;;;;;;19.00;17.80;;;;;;;;;;5092244;28;20415;-76
2023/10/15 11:38:44;;;;;;;20.13;18.80;;;;;;;;;;5091755;28;20539;-75
2023/10/15 11:41:13;;;;;;;19.43;18.33;;;;;;;;;;5092019;28;20516;-75
2023/10/15 11:43:43;;;;;;;20.13;18.83;;;;;;;;;;5092113;28;20449;-76
2023/10/15 11:46:10;;;;;;;19.00;17.93;;;;;;;;;;5091364;28;20547;-75
2023/10/15 11:48:38;;;;;;;19.47;18.20;;;;;;;;;;5091293;28;20540;-75
2023/10/15 11:51:08;;;;;;;19.87;18.77;;;;;;;;;;5091955;28;20528;-74
2023/10/15 11:53:35;;;;;;;20.00;18.70;;;;;;;;;;5092036;28;20469;-74
2023/10/15 11:56:02;;;;;;;19.33;18.33;;;;;;;;;;5091243;28;20456;-75
2023/10/15 11:58:32;;;;;;;20.53;19.07;;;;;;;;;;5091047;28;20492;-74
2023/10/15 12:00:59;;;;;;;20.60;19.30;;;;;;;;;;5091574;28;20451;-75
2023/10/15 12:03:26;;;;;;;20.23;19.13;;;;;;;;;;5091692;28;20419;-74
2023/10/15 12:05:53;;;;;;;20.07;18.87;;;;;;;;;;5090872;28;20448;-75
2023/10/15 12:08:21;;;;;;;20.70;19.40;;;;;;;;;;5090718;28;21120;-74
2023/10/15 12:10:49;;;;;;;20.50;19.20;;;;;;;;;;5091357;28;20498;-75
2023/10/15 12:13:16;;;;;;;20.20;19.00;;;;;;;;;;5091381;28;20434;-74
2023/10/15 12:15:45;;;;;;;20.07;18.87;;;;;;;;;;5090995;28;20448;-75
2023/10/15 12:18:13;;;;;;;20.20;19.10;;;;;;;;;;5091082;28;20455;-74
2023/10/15 12:20:40;;;;;;;21.27;19.87;;;;;;;;;;5091322;28;20484;-74
2023/10/15 12:23:07;;;;;;;19.63;18.33;;;;;;;;;;5091451;28;20419;-75
2023/10/15 12:25:38;;;;;;;19.87;18.83;;;;;;;;;;5090922;28;20448;-74
2023/10/15 12:28:05;;;;;;;20.37;19.17;;;;;;;;;;5090886;28;20451;-75
2023/10/15 12:30:32;;;;;;;20.83;19.53;;;;;;;;;;5091246;28;20480;-75
2023/10/15 12:33:01;;;;;;;21.03;19.57;;;;;;;;;;5091391;28;20495;-74
2023/10/15 12:35:28;;;;;;;21.07;19.57;;;;;;;;;;5090976;28;20473;-75
2023/10/15 12:38:01;;;;;;;20.70;19.50;;;;;;;;;;5091007;28;20436;-74
2023/10/15 12:40:31;;;;;;;20.43;19.23;;;;;;;;;;5090451;28;20463;-74
2023/10/15 12:42:59;;;;;;;20.40;19.10;;;;;;;;;;5091278;28;20444;-75
2023/10/15 12:45:26;;;;;;;21.40;20.07;;;;;;;;;;5090278;28;20948;-75
2023/10/15 12:47:53;;;;;;;21.20;19.80;;;;;;;;;;5091183;28;20443;-75
2023/10/15 12:50:23;;;;;;;20.10;19.00;;;;;;;;;;5090550;28;20531;-75
2023/10/15 12:52:52;;;;;;;21.80;20.27;;;;;;;;;;5091174;28;20452;-75
2023/10/15 12:55:19;;;;;;;20.83;19.63;;;;;;;;;;5090468;28;20419;-74
2023/10/15 12:57:47;;;;;;;20.77;19.50;;;;;;;;;;5091005;28;20551;-75
2023/10/15 13:00:17;;;;;;;21.67;20.23;;;;;;;;;;5090455;28;20554;-75
2023/10/15 13:02:44;;;;;;;20.57;19.37;;;;;;;;;;5090844;28;21251;-74
2023/10/15 13:05:13;;;;;;;20.00;18.90;;;;;;;;;;5090421;28;20448;-74
2023/10/15 13:07:41;;;;;;;19.90;18.70;;;;;;;;;;5090919;28;20460;-75
2023/10/15 13:10:09;;;;;;;20.53;19.13;;;;;;;;;;5090279;28;20502;-74
2023/10/15 13:12:37;;;;;;;20.00;18.73;;;;;;;;;;5091064;28;20427;-75
2023/10/15 13:15:04;;;;;;;22.33;20.60;;;;;;;;;;5090306;28;20424;-75
2023/10/15 13:17:31;;;;;;;21.20;20.00;;;;;;;;;;5090929;28;20440;-74
2023/10/15 13:19:59;;;;;;;21.27;19.77;;;;;;;;;;5093518;28;20447;-75
2023/10/15 13:22:26;;;;;;;19.87;18.77;;;;;;;;;;5094549;28;20445;-74
2023/10/15 13:24:54;;;;;;;20.43;19.33;;;;;;;;;;5094275;28;20456;-74
2023/10/15 13:27:21;;;;;;;20.53;19.33;;;;;;;;;;5094976;28;20465;-74
2023/10/15 13:29:49;;;;;;;20.53;19.30;;;;;;;;;;5093680;28;20521;-75
2023/10/15 13:32:16;;;;;;;20.77;19.47;;;;;;;;;;5094906;28;20431;-74
2023/10/15 13:34:43;;;;;;;21.07;19.87;;;;;;;;;;5093456;28;20798;-75
2023/10/15 13:37:10;;;;;;;20.03;18.80;;;;;;;;;;5095067;28;20451;-75
2023/10/15 13:39:37;;;;;;;20.83;19.63;;;;;;;;;;5094804;28;20451;-75
2023/10/15 13:42:06;;;;;;;20.20;19.10;;;;;;;;;;5094091;28;20897;-75
2023/10/15 13:44:33;;;;;;;21.13;19.90;;;;;;;;;;5093372;28;20990;-74
2023/10/15 13:47:00;;;;;;;21.00;19.80;;;;;;;;;;5093989;28;21241;-75
2023/10/15 13:49:27;;;;;;;20.77;19.40;;;;;;;;;;5094355;28;20419;-74
2023/10/15 13:51:54;;;;;;;19.77;18.70;;;;;;;;;;5094217;28;20419;-75
2023/10/15 13:54:21;;;;;;;21.40;20.10;;;;;;;;;;5093163;28;20473;-75
2023/10/15 13:56:48;;;;;;;20.53;19.13;;;;;;;;;;5094516;28;20469;-74
2023/10/15 13:59:17;;;;;;;20.07;18.97;;;;;;;;;;5093865;28;21006;-75
2023/10/15 14:01:44;;;;;;;19.83;18.63;;;;;;;;;;5093003;28;20832;-75
2023/10/15 14:04:12;;;;;;;21.40;20.10;;;;;;;;;;5093561;28;20471;-75
2023/10/15 14:06:39;;;;;;;20.53;19.20;;;;;;;;;;5093510;28;20495;-74
2023/10/15 14:09:08;;;;;;;19.90;18.80;;;;;;;;;;5093686;28;20774;-74
2023/10/15 14:11:37;;;;;;;20.07;18.77;;;;;;;;;;5093913;28;20451;-75
2023/10/15 14:14:04;;;;;;;19.10;17.90;;;;;;;;;;5093245;28;20427;-75
2023/10/15 14:16:33;;;;;;;19.90;18.80;;;;;;;;;;5094047;28;20516;-75
2023/10/15 14:19:00;;;;;;;20.93;19.37;;;;;;;;;;5093678;28;20530;-74
2023/10/15 14:21:28;;;;;;;20.50;19.40;;;;;;;;;;5092468;28;20511;-74
2023/10/15 14:23:55;;;;;;;19.87;18.70;;;;;;;;;;5092968;28;20485;-75
2023/10/15 14:26:23;;;;;;;21.07;19.80;;;;;;;;;;5094014;28;20476;-74
2023/10/15 14:28:50;;;;;;;19.20;18.00;;;;;;;;;;5092422;28;20461;-75
2023/10/15 14:31:18;;;;;;;18.90;17.97;;;;;;;;;;5093410;28;20407;-76